ADDS METAR Data INFO
IDs: Format: Raw Decoded Include TAF

Data at: 0212 UTC 19 Jul 2018

KBYY 190155Z AUTO 17003KT 10SM CLR 27/25 A2995 RMK AO2 T02720248
KBYY 190135Z AUTO 17005KT 10SM CLR 27/25 A2994 RMK AO2 T02790250
KBYY 190115Z AUTO 18006KT 10SM CLR 28/25 A2994 RMK AO2 T02860249
KBYY 190055Z AUTO 18008KT 10SM CLR 28/25 A2994 RMK AO2 T02930248
KBYY 190035Z AUTO 17010KT 10SM CLR 30/25 A2993 RMK AO2 T02990247
KBYY 190015Z AUTO 17009KT 10SM CLR 30/25 A2993 RMK AO2 T03040246
KBYY 182355Z AUTO 18011KT 10SM CLR 30/24 A2993 RMK AO2 T03110246
KBYY 182335Z AUTO 17011KT 10SM CLR 31/24 A2993 RMK AO2 T03160247
KBYY 182315Z AUTO 17009KT 10SM CLR 31/24 A2993 RMK AO2 T03200246
KBYY 182255Z AUTO 17010KT 10SM CLR 32/24 A2993 RMK AO2 T03220245
KBYY 182235Z AUTO 17010KT 10SM CLR 32/24 A2994 RMK AO2 T03280238
KBYY 182215Z AUTO 21008KT 10SM CLR 32/23 A2994 RMK AO2 T03310235
KBYY 182155Z AUTO 20009KT 10SM CLR 33/23 A2994 RMK AO2 T03330232
KBYY 182135Z AUTO 19008KT 10SM CLR 33/23 A2995 RMK AO2 T03300234
KBYY 182115Z AUTO 20009KT 10SM CLR 33/23 A2995 RMK AO2 T03290239
KBYY 182055Z AUTO 20010KT 10SM CLR 32/24 A2995 RMK AO2 T03310239
KBYY 182035Z AUTO 20008KT 10SM SCT042 33/23 A2996 RMK AO2 T03310239
KBYY 182015Z AUTO 21010KT 10SM SCT040 33/23 A2996 RMK AO2 T03350234
KBYY 181955Z AUTO 20003KT 10SM CLR 33/23 A2997 RMK AO2 T03370234
KBYY 181935Z AUTO 18006KT 10SM CLR 33/23 A2998 RMK AO2 T03370230
KBYY 181915Z AUTO 22006KT 10SM SCT041 33/23 A2998 RMK AO2 T03340235
KBYY 181855Z AUTO 20008G14KT 10SM SCT041 33/23 A2998 RMK AO2 T03330234
KBYY 181835Z AUTO 24008KT 10SM SCT041 33/22 A2999 RMK AO2 T03330229
KBYY 181815Z AUTO 23007KT 10SM SCT041 33/22 A3000 RMK AO2 T03310229
KBYY 181755Z AUTO 25007KT 10SM SCT037 SCT043 32/22 A3001 RMK AO2 T03280231
KBYY 181735Z AUTO 24008KT 10SM SCT035 SCT041 32/23 A3001 RMK AO2 T03260239
KBYY 181715Z AUTO 20005KT 10SM SCT036 32/23 A3002 RMK AO2 T03240233
KBYY 181655Z AUTO 21008KT 10SM SCT034 32/23 A3002 RMK AO2 T03210237
KBYY 181635Z AUTO 23007KT 10SM SCT027 SCT034 31/23 A3003 RMK AO2 T03160242
KBYY 181615Z AUTO 25010KT 10SM SCT027 BKN036 32/25 A3003 RMK AO2 T03180244
KBYY 181555Z AUTO 23010KT 10SM SCT029 SCT034 31/23 A3003 RMK AO2 T03110241
KBYY 181535Z AUTO 21009G14KT 10SM SCT029 31/23 A3002 RMK AO2 T03100240
KBYY 181515Z AUTO 23010KT 10SM SCT025 SCT031 31/23 A3003 RMK AO2 T03060244
KBYY 181455Z AUTO 25009KT 10SM BKN021 BKN029 30/25 A3003 RMK AO2 T03010248
KBYY 181435Z AUTO 22010KT 10SM BKN019 BKN027 30/25 A3003 RMK AO2 T03000253
KBYY 181415Z AUTO 21009KT 10SM BKN017 29/25 A3003 RMK AO2 T02900259
KBYY 181355Z AUTO 24005KT 7SM CLR 28/26 A3004 RMK AO2 T02820261
KBYY 181335Z AUTO 24006KT 10SM CLR 27/26 A3003 RMK AO2 T02740260
KBYY 181315Z AUTO 23004KT 7SM SCT019 26/26 A3003 RMK AO2 T02640259
KBYY 181255Z AUTO 00000KT 7SM SCT019 SCT025 25/25 A3003 RMK AO2 T02540252
KBYY 181235Z AUTO 00000KT 5SM BR SCT019 BKN025 BKN032 25/25 A3003 RMK AO2 T02500249
KBYY 181215Z AUTO 00000KT 5SM BR SCT017 SCT023 BKN029 25/24 A3003 RMK AO2 T02470245
KBYY 181155Z AUTO 21003KT 7SM CLR 24/24 A3003 RMK AO2 T02460245
KBYY 181135Z AUTO 22003KT 10SM CLR 24/24 A3003 RMK AO2 T02450244
KBYY 181115Z AUTO 21004KT 7SM CLR 23/23 A3003 RMK AO2 T02400240
KBYY 181055Z AUTO 19003KT 7SM CLR 23/23 A3003 RMK AO2 T02410240
KBYY 181035Z AUTO 18003KT 7SM CLR 24/24 A3003 RMK AO2 T02430242
KBYY 181015Z AUTO 00000KT 7SM SCT019 24/24 A3003 RMK AO2 T02430242
KBYY 180955Z AUTO 00000KT 3SM BR SCT019 23/23 A3002 RMK AO2 T02400237
KBYY 180935Z AUTO 00000KT 7SM CLR 24/23 A3002 RMK AO2 T02420238
KBYY 180915Z AUTO 00000KT 7SM CLR 24/23 A3002 RMK AO2 T02450240
KBYY 180855Z AUTO 18004KT 10SM SCT019 24/23 A3001 RMK AO2 T02450240
KBYY 180835Z AUTO 00000KT 10SM CLR 24/23 A3001 RMK AO2 T02450239
KBYY 180815Z AUTO 17003KT 10SM CLR 24/23 A3001 RMK AO2 T02460240
KBYY 180755Z AUTO 18003KT 10SM SCT018 24/23 A3001 RMK AO2 T02470240
KBYY 180735Z AUTO 00000KT 10SM CLR 25/24 A3002 RMK AO2 T02520243
KBYY 180715Z AUTO 00000KT 10SM CLR 25/24 A3001 RMK AO2 T02520245
KBYY 180655Z AUTO 21003KT 10SM CLR 25/24 A3001 RMK AO2 T02510244
KBYY 180635Z AUTO 21004KT 10SM CLR 25/24 A3002 RMK AO2 T02510245
KBYY 180615Z AUTO 21004KT 10SM CLR 25/24 A3002 RMK AO2 T02500244
KBYY 180555Z AUTO 22003KT 10SM CLR 25/24 A3002 RMK AO2 T02490242
KBYY 180535Z AUTO 20003KT 10SM CLR 25/23 A3003 RMK AO2 T02500242
KBYY 180515Z AUTO 00000KT 10SM CLR 25/24 A3003 RMK AO2 T02510243
KBYY 180455Z AUTO 00000KT 10SM CLR 25/24 A3003 RMK AO2 T02540245
KBYY 180435Z AUTO 00000KT 10SM CLR 25/24 A3003 RMK AO2 T02560246
KBYY 180415Z AUTO 00000KT 10SM CLR 25/25 A3003 RMK AO2 T02570247
KBYY 180355Z AUTO 00000KT 10SM CLR 25/25 A3003 RMK AO2 T02570247
KBYY 180335Z AUTO 16003KT 10SM CLR 26/25 A3003 RMK AO2 T02590247
KBYY 180315Z AUTO 00000KT 10SM CLR 26/25 A3002 RMK AO2 T02610248
KBYY 180255Z AUTO 18003KT 10SM CLR 26/25 A3002 RMK AO2 T02640249
KBYY 180235Z AUTO 00000KT 10SM CLR 26/25 A3002 RMK AO2 T02660250
KBYY 180215Z AUTO 18003KT 10SM CLR 26/25 A3001 RMK AO2 T02700250
KBYY 180155Z AUTO 18003KT 10SM CLR 27/25 A3002 RMK AO2 T02760250
KBYY 180135Z AUTO 19004KT 10SM CLR 27/25 A3002 RMK AO2 T02820251
KBYY 180115Z AUTO 19004KT 10SM CLR 28/25 A3001 RMK AO2 T02880250
KBYY 180055Z AUTO 18007KT 10SM CLR 29/25 A3001 RMK AO2 T02960248
KBYY 180035Z AUTO 19010KT 10SM CLR 30/24 A3001 RMK AO2 T03030245
KBYY 180015Z AUTO 19010KT 10SM CLR 30/24 A3001 RMK AO2 T03090243
KBYY 172355Z AUTO 19011G15KT 10SM CLR 31/24 A3001 RMK AO2 T03150242
KBYY 172335Z AUTO 19012KT 10SM CLR 31/23 A3001 RMK AO2 T03200239
KBYY 172315Z AUTO 19011KT 10SM CLR 32/23 A3001 RMK AO2 T03250238
KBYY 172255Z AUTO 19012G15KT 10SM CLR 32/23 A3001 RMK AO2 T03290239
KBYY 172235Z AUTO 19011KT 10SM CLR 32/23 A3001 RMK AO2 T03310239
KBYY 172215Z AUTO 18011KT 10SM CLR 33/23 A3001 RMK AO2 T03340242
KBYY 172155Z AUTO 17012KT 10SM CLR 33/24 A3001 RMK AO2 T03340243
KBYY 172135Z AUTO 18007KT 10SM SCT041 33/24 A3001 RMK AO2 T03370244
KBYY 172115Z AUTO 20008G14KT 10SM SCT038 SCT045 33/25 A3002 RMK AO2 T03380248
KBYY 172055Z AUTO 16009KT 10SM BKN043 33/25 A3002 RMK AO2 T03310250
KBYY 172035Z AUTO 17009KT 10SM SCT034 SCT044 32/25 A3003 RMK AO2 T03360255
KBYY 172015Z AUTO 16007KT 10SM BKN042 BKN049 BKN055 34/25 A3003 RMK AO2 T03420249
KBYY 171955Z AUTO 19003KT 10SM BKN042 BKN049 33/23 A3004 RMK AO2 T03360237
KBYY 171935Z AUTO 21003KT 10SM CLR 33/23 A3005 RMK AO2 T03400239
KBYY 171915Z AUTO 22003KT 10SM SCT041 34/23 A3005 RMK AO2 T03410238
KBYY 171855Z AUTO 24007KT 10SM SCT039 33/23 A3005 RMK AO2 T03380239
KBYY 171835Z AUTO 22005KT 10SM SCT037 SCT047 33/24 A3006 RMK AO2 T03320240
KBYY 171815Z AUTO 23004KT 10SM SCT037 BKN045 33/24 A3006 RMK AO2 T03310241
KBYY 171755Z AUTO 22006KT 10SM SCT037 SCT045 SCT055 33/23 A3007 RMK AO2 T03300237
KBYY 171735Z AUTO 24006KT 10SM SCT034 SCT042 BKN049 32/23 A3007 RMK AO2 T03220241
KBYY 171715Z AUTO 23004KT 10SM SCT032 SCT040 SCT049 32/24 A3008 RMK AO2 T03270246
KBYY 171655Z AUTO 22007KT 10SM SCT030 32/23 A3008 RMK AO2 T03240242
KBYY 171635Z AUTO 22005KT 10SM BKN028 BKN036 32/24 A3008 RMK AO2 T03180247
KBYY 171615Z AUTO 23004KT 10SM SCT028 BKN034 BKN044 31/25 A3008 RMK AO2 T03110249
KBYY 171555Z AUTO 29004KT 10SM BKN023 BKN038 30/25 A3008 RMK AO2 T03080253
KBYY 171535Z AUTO 26003KT 10SM BKN023 BKN030 31/25 A3008 RMK AO2 T03080252
KBYY 171515Z AUTO 23003KT 10SM SCT017 30/25 A3008 RMK AO2 T02990251
KBYY 171455Z AUTO 24004KT 10SM SCT017 SCT021 SCT027 29/25 A3009 RMK AO2 T02920255
KBYY 171435Z AUTO 00000KT 7SM SCT021 SCT027 28/25 A3009 RMK AO2 T02890258
KBYY 171415Z AUTO 21003KT 10SM CLR 28/26 A3009 RMK AO2 T02790260